Time;durP1;ratioP1;P1;durP2;ratioP2;P2;SDS_P1;SDS_P2;PMS_P1;PMS_P2;Temp;Humidity;BMP_temperature;BMP_pressure;BME280_temperature;BME280_humidity;BME280_pressure;Samples;Min_cycle;Max_cycle;Signal;HPM_P1;HPM_P2
2022/12/14 00:02:01;;;;;;;21.83;15.50;;;-5.00;99.90;;;-141.84;73.73;18556.00;5052528;28;20221;-69
2022/12/14 00:04:30;;;;;;;20.33;14.87;;;-5.10;99.90;;;-141.84;74.24;18574.28;5052071;28;20693;-68
2022/12/14 00:06:58;;;;;;;20.83;15.27;;;-5.10;99.90;;;-141.84;73.36;18584.47;5052166;28;20292;-68
2022/12/14 00:09:27;;;;;;;21.63;15.30;;;-5.00;99.90;;;-141.84;72.88;18572.25;5052573;28;20211;-69
2022/12/14 00:11:56;;;;;;;21.57;14.87;;;-5.00;99.90;;;-141.84;72.92;18578.38;5052871;28;20217;-69
2022/12/14 00:14:24;;;;;;;21.40;14.73;;;-4.90;99.90;;;-141.84;73.83;18572.25;5052470;28;20221;-69
2022/12/14 00:16:52;;;;;;;24.90;14.37;;;-5.00;99.90;;;-141.84;73.91;18547.88;5052590;28;20235;-68
2022/12/14 00:19:20;;;;;;;21.47;15.10;;;-5.00;99.90;;;-141.84;73.76;18549.91;5051354;28;20244;-68
2022/12/14 00:21:48;;;;;;;21.87;14.90;;;-4.90;99.90;;;-141.84;73.48;18539.75;5052700;28;20381;-69
2022/12/14 00:24:16;;;;;;;22.17;14.90;;;-4.90;99.90;;;-141.84;73.75;18537.72;5052850;28;20285;-69
2022/12/14 00:26:46;;;;;;;21.00;14.00;;;-4.90;99.90;;;-141.84;73.59;18545.84;5052803;28;20214;-69
2022/12/14 00:29:14;;;;;;;20.60;13.90;;;-4.90;99.90;;;-141.84;74.13;18598.69;5052268;28;20254;-68
2022/12/14 00:31:42;;;;;;;22.33;14.73;;;-4.90;99.90;;;-141.84;74.75;18543.81;5052374;28;20772;-67
2022/12/14 00:34:16;;;;;;;20.43;14.40;;;-5.00;99.90;;;-141.84;74.94;18558.03;5052110;28;20293;-67
2022/12/14 00:36:44;;;;;;;21.03;14.73;;;-4.90;99.90;;;-141.84;74.18;18576.31;5052184;28;20289;-68
2022/12/14 00:39:12;;;;;;;23.83;14.83;;;-4.90;99.90;;;-141.84;74.40;18580.41;5051818;28;20566;-67
2022/12/14 00:41:40;;;;;;;21.37;14.13;;;-4.80;99.90;;;-141.84;75.01;18592.59;5052543;28;20199;-68
2022/12/14 00:44:09;;;;;;;19.97;13.93;;;-4.90;99.90;;;-141.84;75.10;18566.16;5052053;28;20227;-68
2022/12/14 00:46:38;;;;;;;19.93;13.83;;;-4.80;99.90;;;-141.84;75.03;18574.28;5052253;28;20227;-69
2022/12/14 00:49:06;;;;;;;20.77;14.33;;;-4.80;99.90;;;-141.84;75.14;18541.78;5051388;28;20705;-68
2022/12/14 00:51:34;;;;;;;18.00;13.40;;;-4.80;99.90;;;-141.84;74.69;18582.44;5051725;28;20226;-67
2022/12/14 00:54:02;;;;;;;18.43;13.83;;;-4.70;99.90;;;-141.84;74.84;18553.97;5052211;28;20224;-69
2022/12/14 00:56:30;;;;;;;19.97;14.27;;;-4.80;99.90;;;-141.84;74.88;18594.63;5051475;28;20226;-67
2022/12/14 00:58:59;;;;;;;19.20;14.43;;;-4.70;99.90;;;-141.84;74.96;18558.03;5051499;28;20255;-67
2022/12/14 01:01:29;;;;;;;17.33;13.37;;;-4.70;99.90;;;-141.84;74.78;18562.09;5051462;28;20260;-68
2022/12/14 01:04:15;;;;;;;19.80;13.70;;;-4.70;99.90;;;-141.84;75.12;18537.72;5051475;28;20317;-68
2022/12/14 01:06:45;;;;;;;19.60;14.27;;;-4.70;99.90;;;-141.84;75.29;18558.03;5051172;28;20236;-69
2022/12/14 01:09:13;;;;;;;21.17;14.03;;;-4.80;99.90;;;-141.84;75.36;18558.03;5051263;28;20206;-67
2022/12/14 01:11:43;;;;;;;19.60;14.33;;;-4.80;99.90;;;-141.84;75.55;18564.13;5051568;28;20641;-67
2022/12/14 01:14:15;;;;;;;20.13;14.13;;;-4.80;99.90;;;-141.84;74.73;18553.97;5051209;28;20222;-68
2022/12/14 01:16:44;;;;;;;21.00;13.90;;;-4.80;99.90;;;-141.84;74.13;18578.38;5051283;28;20276;-67
2022/12/14 01:19:15;;;;;;;22.43;13.80;;;-4.70;99.90;;;-141.84;74.35;18549.91;5051247;28;20871;-67
2022/12/14 01:21:43;;;;;;;18.53;13.23;;;-4.70;99.90;;;-141.84;74.01;18582.44;5051246;28;20227;-67
2022/12/14 01:24:11;;;;;;;19.30;13.77;;;-4.70;99.90;;;-141.84;74.30;18576.31;5051231;28;20205;-65
2022/12/14 01:26:40;;;;;;;18.93;13.23;;;-4.70;99.90;;;-141.84;74.76;18545.84;5051092;28;20217;-68
2022/12/14 01:29:08;;;;;;;22.23;14.77;;;-4.80;99.90;;;-141.84;74.69;18584.47;5051041;28;20706;-67
2022/12/14 01:31:38;;;;;;;20.17;13.83;;;-4.70;99.90;;;-141.84;74.52;18558.03;5051439;28;20232;-67
2022/12/14 01:34:09;;;;;;;17.70;13.70;;;-4.70;99.90;;;-141.84;74.80;18566.16;5051933;28;20237;-69
2022/12/14 01:36:38;;;;;;;17.47;13.13;;;-4.70;99.90;;;-141.84;74.94;18588.53;5050992;28;20242;-68
2022/12/14 01:39:12;;;;;;;19.77;13.57;;;-4.70;99.90;;;-141.84;74.53;18564.13;5051499;28;20207;-67
2022/12/14 01:41:43;;;;;;;20.03;13.53;;;-4.70;99.90;;;-141.84;74.78;18576.31;5051274;28;20238;-69
2022/12/14 01:45:04;;;;;;;19.97;13.30;;;-4.70;99.90;;;-141.84;74.98;18586.50;5051133;28;20736;-68
2022/12/14 01:47:42;;;;;;;18.70;12.60;;;-4.70;99.90;;;-141.84;75.09;18574.28;5008747;28;20709;-68
2022/12/14 01:50:24;;;;;;;17.60;12.67;;;-4.70;99.90;;;-141.84;74.55;18566.16;5008749;28;20259;-69
2022/12/14 01:52:58;;;;;;;19.10;13.27;;;-4.70;99.90;;;-141.84;74.85;18566.16;5034830;28;20223;-68
2022/12/14 01:55:31;;;;;;;18.70;12.77;;;-4.70;99.90;;;-141.84;74.33;18578.38;5050490;28;20232;-67
2022/12/14 01:58:07;;;;;;;22.50;13.53;;;-4.70;99.90;;;-141.84;74.71;18523.50;5050671;28;20647;-68
2022/12/14 02:00:35;;;;;;;19.20;12.83;;;-4.70;99.90;;;-141.84;74.98;18576.31;5050862;28;20234;-68
2022/12/14 02:03:10;;;;;;;18.80;13.43;;;-4.80;99.90;;;-141.84;74.78;18553.97;5050696;28;20693;-68
2022/12/14 02:05:46;;;;;;;15.73;11.57;;;-4.70;99.90;;;-141.84;75.10;18582.44;5031072;28;20254;-69
2022/12/14 02:08:17;;;;;;;20.47;13.50;;;-4.80;99.90;;;-141.84;75.43;18566.16;5030609;28;20733;-68
2022/12/14 02:10:47;;;;;;;16.77;12.30;;;-4.80;99.90;;;-141.84;75.07;18537.72;5043554;28;20222;-68
2022/12/14 02:13:21;;;;;;;17.90;12.37;;;-4.80;99.90;;;-141.84;75.10;18541.78;5041844;28;20226;-69
2022/12/14 02:15:50;;;;;;;18.60;13.17;;;-4.90;99.90;;;-141.84;75.31;18564.13;5030574;28;20239;-69
2022/12/14 02:18:22;;;;;;;20.13;13.63;;;-4.90;99.90;;;-141.84;75.44;18549.91;5030724;28;20200;-67
2022/12/14 02:21:19;;;;;;;19.10;12.73;;;-4.80;99.90;;;-141.84;75.01;18576.31;5031256;28;20709;-68
2022/12/14 02:24:43;;;;;;;19.97;13.57;;;-4.80;99.90;;;-141.84;75.05;18556.00;5050851;28;20685;-68
2022/12/14 02:27:32;;;;;;;17.40;12.37;;;-4.80;99.90;;;-141.84;75.25;18543.81;5030416;28;20246;-69
2022/12/14 02:30:07;;;;;;;18.60;13.33;;;-4.90;99.90;;;-141.84;75.76;18568.19;5031186;28;20241;-68
2022/12/14 02:33:07;;;;;;;18.30;12.83;;;-4.90;99.90;;;-141.84;75.86;18572.25;5050043;28;20231;-68
2022/12/14 02:35:47;;;;;;;18.73;13.00;;;-5.00;99.90;;;-141.84;75.67;18553.97;5050613;28;20238;-69
2022/12/14 02:38:33;;;;;;;19.53;12.40;;;-5.00;99.90;;;-141.84;75.50;18556.00;5050355;28;20231;-68
2022/12/14 02:41:15;;;;;;;16.33;12.23;;;-5.00;99.90;;;-141.84;75.22;18562.09;5050461;28;20230;-69
2022/12/14 02:43:55;;;;;;;17.50;12.73;;;-5.00;99.90;;;-141.84;75.03;18562.09;5052697;28;20347;-68
2022/12/14 02:46:33;;;;;;;15.50;11.63;;;-5.00;99.90;;;-141.84;75.35;18592.59;5054279;28;20225;-69
2022/12/14 02:49:09;;;;;;;18.53;12.30;;;-5.00;99.90;;;-141.84;75.17;18531.63;5054036;28;20243;-69
2022/12/14 02:51:53;;;;;;;16.70;12.37;;;-5.00;99.90;;;-141.84;74.69;18560.06;5054106;28;20237;-69
2022/12/14 02:54:29;;;;;;;16.57;12.07;;;-5.00;99.90;;;-141.84;74.08;18566.16;5054162;28;20279;-68
2022/12/14 02:57:08;;;;;;;17.40;12.13;;;-5.10;99.90;;;-141.84;74.29;18580.41;5054326;28;20203;-68
2022/12/14 02:59:37;;;;;;;17.73;12.33;;;-5.10;99.90;;;-141.84;74.40;18574.28;5054257;28;20221;-68
2022/12/14 03:02:07;;;;;;;18.90;13.13;;;-5.20;99.90;;;-141.84;74.28;18570.22;5054018;28;20368;-68
2022/12/14 03:04:44;;;;;;;16.10;12.10;;;-5.20;99.90;;;-141.84;73.60;18586.50;5054180;28;20229;-69
2022/12/14 03:07:40;;;;;;;18.30;12.20;;;-5.20;99.90;;;-141.84;73.54;18551.94;5053685;28;20317;-67
2022/12/14 03:10:21;;;;;;;16.80;11.97;;;-5.20;99.90;;;-141.84;73.72;18543.81;5054107;28;20230;-68
2022/12/14 03:13:01;;;;;;;17.57;12.37;;;-5.20;99.90;;;-141.84;73.92;18574.28;5053877;28;20225;-69
2022/12/14 03:15:31;;;;;;;16.17;11.77;;;-5.30;99.90;;;-141.84;73.96;18576.31;5053818;28;20207;-68
2022/12/14 03:18:07;;;;;;;18.13;11.50;;;-5.30;99.90;;;-141.84;73.38;18582.44;5054403;28;20203;-68
2022/12/14 03:20:38;;;;;;;18.97;13.03;;;-5.30;99.90;;;-141.84;73.13;18570.22;5053481;28;20231;-69
2022/12/14 03:23:12;;;;;;;19.33;12.13;;;-5.30;99.90;;;-141.84;72.99;18576.31;5053296;28;20268;-68
2022/12/14 03:25:47;;;;;;;20.20;12.43;;;-5.30;99.90;;;-141.84;73.10;18580.41;5053732;28;20248;-68
2022/12/14 03:28:22;;;;;;;16.80;11.70;;;-5.40;99.90;;;-141.84;73.22;18570.22;5033534;28;20229;-70
2022/12/14 03:30:57;;;;;;;15.87;11.47;;;-5.40;99.90;;;-141.84;73.39;18570.22;5033611;28;20241;-68
2022/12/14 03:33:32;;;;;;;17.93;11.87;;;-5.50;99.90;;;-141.84;73.71;18519.44;5043482;28;20194;-69
2022/12/14 03:36:10;;;;;;;16.97;11.90;;;-5.40;99.90;;;-141.84;73.17;18537.72;5053584;28;20229;-68
2022/12/14 03:38:43;;;;;;;15.60;11.70;;;-5.40;99.90;;;-141.84;73.13;18566.16;5052984;28;20264;-68
2022/12/14 03:41:23;;;;;;;15.97;11.23;;;-5.40;99.90;;;-141.84;72.60;18553.97;5052911;28;20235;-69
2022/12/14 03:44:10;;;;;;;17.73;10.87;;;-5.30;99.90;;;-141.84;72.51;18547.88;5052456;28;20748;-69
2022/12/14 03:46:52;;;;;;;17.53;10.87;;;-5.30;99.90;;;-141.84;73.01;18610.88;5052521;28;20726;-69
2022/12/14 03:49:42;;;;;;;16.83;11.17;;;-5.30;99.90;;;-141.84;73.56;18572.25;5052823;28;20244;-68
2022/12/14 03:52:23;;;;;;;17.60;11.17;;;-5.30;99.90;;;-141.84;73.08;18582.44;5053041;28;20237;-69
2022/12/14 03:55:05;;;;;;;16.90;11.13;;;-5.40;99.90;;;-141.84;72.86;18598.69;5052171;28;20752;-69
2022/12/14 03:57:51;;;;;;;19.10;10.70;;;-5.40;99.90;;;-141.84;73.12;18545.84;5052569;28;20307;-69
2022/12/14 04:00:25;;;;;;;17.20;10.83;;;-5.40;99.90;;;-141.84;73.15;18578.38;5052633;28;20236;-69
2022/12/14 04:03:09;;;;;;;18.40;11.20;;;-5.40;99.90;;;-141.84;72.99;18545.84;5052749;28;20185;-69
2022/12/14 04:05:46;;;;;;;15.53;10.90;;;-5.40;99.90;;;-141.84;73.52;18586.50;5052954;28;20201;-68
2022/12/14 04:08:39;;;;;;;16.30;10.30;;;-5.40;99.90;;;-141.84;73.28;18570.22;5051988;28;20793;-69
2022/12/14 04:19:50;;;;;;;14.70;10.00;;;-5.50;99.90;;;-141.84;73.43;18545.84;5052211;28;20706;-69
2022/12/14 04:22:26;;;;;;;15.13;9.93;;;-5.40;99.90;;;-141.84;72.90;18590.56;5052221;28;20239;-69
2022/12/14 04:27:53;;;;;;;14.60;10.40;;;-5.40;99.90;;;-141.84;72.81;18572.25;5052118;28;20327;-69
2022/12/14 04:30:21;;;;;;;14.07;10.37;;;-5.40;99.90;;;-141.84;72.85;18553.97;5052428;28;20185;-67
2022/12/14 04:32:53;;;;;;;14.53;9.80;;;-5.40;99.90;;;-141.84;72.40;18596.66;5052595;28;20204;-68
2022/12/14 04:35:27;;;;;;;20.63;10.30;;;-5.30;99.90;;;-141.84;73.19;18560.06;5052064;28;20237;-69
2022/12/14 04:38:03;;;;;;;13.77;9.50;;;-5.40;99.90;;;-141.84;72.78;18568.19;5051607;28;20234;-68
2022/12/14 04:40:38;;;;;;;13.27;10.00;;;-5.40;99.90;;;-141.84;73.19;18580.41;5051982;28;20725;-69
2022/12/14 04:43:13;;;;;;;14.70;10.63;;;-5.50;99.90;;;-141.84;73.08;18570.22;5051903;28;20253;-69
2022/12/14 04:45:48;;;;;;;16.30;10.57;;;-5.50;99.90;;;-141.84;73.46;18594.63;5052117;28;20225;-68
2022/12/14 04:48:29;;;;;;;13.77;9.87;;;-5.50;99.90;;;-141.84;73.89;18582.44;5051544;28;20233;-68
2022/12/14 04:51:09;;;;;;;15.23;9.93;;;-5.50;99.90;;;-141.84;73.43;18549.91;5052531;28;20224;-68
2022/12/14 04:53:44;;;;;;;16.87;10.23;;;-5.50;99.90;;;-141.84;73.99;18596.66;5031849;28;20222;-68
2022/12/14 04:56:23;;;;;;;16.67;10.77;;;-5.60;99.90;;;-141.84;74.26;18570.22;5048445;28;20231;-67
2022/12/14 04:58:51;;;;;;;16.67;11.00;;;-5.50;99.90;;;-141.84;73.87;18553.97;5051202;28;20277;-69
2022/12/14 05:01:39;;;;;;;17.13;10.90;;;-5.50;99.90;;;-141.84;73.64;18572.25;5051610;28;20230;-69
2022/12/14 05:04:24;;;;;;;14.83;10.40;;;-5.50;99.90;;;-141.84;73.38;18562.09;5051518;28;20764;-69
2022/12/14 05:07:06;;;;;;;16.63;10.13;;;-5.40;99.90;;;-141.84;73.28;18572.25;5051092;28;20312;-67
2022/12/14 05:09:46;;;;;;;15.47;10.40;;;-5.40;99.90;;;-141.84;73.06;18586.50;5051417;28;20623;-68
2022/12/14 05:12:23;;;;;;;16.43;11.10;;;-5.40;99.90;;;-141.84;72.91;18566.16;5051714;28;20190;-72
2022/12/14 05:14:59;;;;;;;16.13;10.33;;;-5.30;99.90;;;-141.84;72.81;18566.16;5051022;28;20193;-70
2022/12/14 05:17:28;;;;;;;15.83;10.80;;;-5.30;99.90;;;-141.84;73.44;18562.09;5050865;28;20254;-69
2022/12/14 05:19:56;;;;;;;14.90;9.77;;;-5.40;99.90;;;-141.84;73.35;18580.41;5051021;28;20225;-68
2022/12/14 05:22:24;;;;;;;15.47;10.57;;;-5.40;99.90;;;-141.84;72.80;18560.06;5051184;28;20230;-68
2022/12/14 05:24:54;;;;;;;16.30;10.70;;;-5.30;99.90;;;-141.84;72.76;18598.69;5051097;28;20730;-69
2022/12/14 05:27:22;;;;;;;16.77;10.87;;;-5.30;99.90;;;-141.84;72.48;18590.56;5050857;28;20512;-69
2022/12/14 05:29:50;;;;;;;16.47;10.23;;;-5.30;99.90;;;-141.84;73.22;18564.13;5051412;28;20203;-71
2022/12/14 05:32:18;;;;;;;18.33;10.80;;;-5.30;99.90;;;-141.84;73.10;18531.63;5050925;28;20226;-68
2022/12/14 05:34:46;;;;;;;19.77;10.80;;;-5.30;99.90;;;-141.84;73.29;18586.50;5050927;28;20226;-70
2022/12/14 05:37:14;;;;;;;17.33;11.40;;;-5.40;99.90;;;-141.84;73.87;18590.56;5051189;28;20229;-68
2022/12/14 05:39:45;;;;;;;16.47;10.47;;;-5.40;99.90;;;-141.84;73.80;18570.22;5051276;28;20244;-69
2022/12/14 05:42:15;;;;;;;16.47;11.20;;;-5.50;99.90;;;-141.84;73.48;18570.22;5051461;28;20206;-70
2022/12/14 05:44:43;;;;;;;18.33;11.07;;;-5.50;99.90;;;-141.84;73.56;18551.94;5051262;28;20656;-68
2022/12/14 05:47:12;;;;;;;17.27;11.33;;;-5.50;99.90;;;-141.84;73.92;18553.97;5051119;28;20591;-69
2022/12/14 05:49:41;;;;;;;17.53;11.30;;;-5.50;99.90;;;-141.84;73.44;18598.69;5030668;28;20725;-70
2022/12/14 05:52:09;;;;;;;19.33;11.50;;;-5.50;99.90;;;-141.84;73.82;18553.97;5031078;28;20697;-69
2022/12/14 05:54:37;;;;;;;18.33;11.43;;;-5.50;99.90;;;-141.84;74.08;18564.13;5030750;28;20665;-69
2022/12/14 05:57:05;;;;;;;16.50;10.50;;;-5.60;99.90;;;-141.84;74.00;18580.41;5041842;28;20234;-69
2022/12/14 05:59:35;;;;;;;17.50;11.03;;;-5.60;99.90;;;-141.84;74.23;18588.53;5050666;28;20229;-69
2022/12/14 06:02:03;;;;;;;14.83;10.17;;;-5.70;99.90;;;-141.84;74.12;18560.06;5051006;28;20232;-68
2022/12/14 06:04:32;;;;;;;15.93;11.00;;;-5.70;99.90;;;-141.84;73.64;18570.22;5050901;28;20705;-68
2022/12/14 06:07:00;;;;;;;17.07;11.03;;;-5.60;99.90;;;-141.84;74.03;18576.31;5050822;28;20836;-69
2022/12/14 06:09:28;;;;;;;18.37;10.40;;;-5.60;99.90;;;-141.84;73.66;18586.50;5050759;28;20206;-70
2022/12/14 06:11:56;;;;;;;15.20;10.73;;;-5.60;99.90;;;-141.84;73.84;18541.78;5051294;28;20213;-68
2022/12/14 06:14:24;;;;;;;15.30;9.83;;;-5.60;99.90;;;-141.84;74.38;18570.22;5050482;28;20218;-69
2022/12/14 06:16:54;;;;;;;18.23;11.30;;;-5.70;99.90;;;-141.84;74.96;18553.97;5051672;28;20612;-67
2022/12/14 06:19:22;;;;;;;19.33;11.53;;;-5.70;99.90;;;-141.84;74.96;18570.22;5054838;28;20275;-69
2022/12/14 06:21:50;;;;;;;15.13;11.53;;;-5.70;99.90;;;-141.84;74.76;18582.44;5055024;28;20226;-69
2022/12/14 06:24:18;;;;;;;19.63;12.43;;;-5.70;99.90;;;-141.84;74.30;18592.59;5054607;28;20700;-70
2022/12/14 06:26:46;;;;;;;17.13;11.40;;;-5.60;99.90;;;-141.84;73.94;18590.56;5055206;28;20214;-69
2022/12/14 06:29:18;;;;;;;17.27;11.10;;;-5.60;99.90;;;-141.84;73.84;18553.97;5054380;28;20309;-70
2022/12/14 06:31:47;;;;;;;17.57;10.43;;;-5.60;99.90;;;-141.84;73.61;18572.25;5054599;28;20680;-68
2022/12/14 06:34:18;;;;;;;17.97;11.10;;;-5.50;99.90;;;-141.84;72.78;18584.47;5054313;28;20309;-70
2022/12/14 06:36:53;;;;;;;15.97;10.37;;;-5.40;99.90;;;-141.84;72.62;18578.38;5054327;28;20233;-69
2022/12/14 06:39:21;;;;;;;16.27;10.50;;;-5.40;99.90;;;-141.84;73.34;18566.16;5054319;28;20301;-69
2022/12/14 06:41:50;;;;;;;13.67;10.03;;;-5.40;99.90;;;-141.84;73.45;18558.03;5054727;28;20207;-70
2022/12/14 06:44:19;;;;;;;14.60;10.03;;;-5.50;99.90;;;-141.84;73.02;18570.22;5053637;28;20227;-68
2022/12/14 06:46:47;;;;;;;16.43;11.27;;;-5.50;99.90;;;-141.84;73.10;18535.69;5053612;28;20846;-68
2022/12/14 06:49:17;;;;;;;15.70;10.60;;;-5.50;99.90;;;-141.84;72.60;18564.13;5053901;28;20230;-71
2022/12/14 06:51:45;;;;;;;16.60;11.00;;;-5.50;99.90;;;-141.84;72.86;18556.00;5053637;28;20232;-69
2022/12/14 06:54:15;;;;;;;14.83;10.40;;;-5.50;99.90;;;-141.84;73.17;18570.22;5053778;28;20215;-70
2022/12/14 06:56:46;;;;;;;16.73;11.37;;;-5.50;99.90;;;-141.84;72.40;18531.63;5053711;28;20230;-70
2022/12/14 06:59:16;;;;;;;16.80;10.87;;;-5.50;99.90;;;-141.84;72.79;18574.28;5053657;28;20829;-72
2022/12/14 07:01:45;;;;;;;17.10;10.77;;;-5.50;99.90;;;-141.84;73.08;18588.53;5053908;28;20230;-71
2022/12/14 07:04:20;;;;;;;20.30;11.40;;;-5.50;99.90;;;-141.84;73.38;18541.78;5053690;28;20225;-70
2022/12/14 07:06:48;;;;;;;17.17;10.50;;;-5.60;99.90;;;-141.84;73.22;18560.06;5053822;28;20304;-71
2022/12/14 07:09:16;;;;;;;17.80;10.80;;;-5.70;99.90;;;-141.84;73.35;18584.47;5053839;28;20210;-72
2022/12/14 07:11:44;;;;;;;16.60;10.57;;;-5.70;99.90;;;-141.84;73.36;18596.66;5054317;28;20264;-71
2022/12/14 07:14:16;;;;;;;14.33;10.87;;;-5.70;99.90;;;-141.84;72.90;18537.72;5053094;28;20214;-72
2022/12/14 07:16:44;;;;;;;16.50;10.87;;;-5.70;99.90;;;-141.84;72.85;18578.38;5053220;28;20283;-71
2022/12/14 07:19:18;;;;;;;17.37;11.27;;;-5.70;99.90;;;-141.84;72.79;18590.56;5054171;28;20323;-71
2022/12/14 07:21:46;;;;;;;15.57;10.43;;;-5.70;99.90;;;-141.84;72.68;18588.53;5053416;28;20656;-72
2022/12/14 07:24:14;;;;;;;17.47;11.60;;;-5.70;99.90;;;-141.84;73.17;18586.50;5053248;28;20199;-72
2022/12/14 07:26:43;;;;;;;15.70;11.37;;;-5.70;99.90;;;-141.84;72.76;18594.63;5053283;28;20203;-71
2022/12/14 07:29:13;;;;;;;16.50;10.83;;;-5.60;99.90;;;-141.84;72.40;18576.31;5052343;28;20230;-70
2022/12/14 07:31:41;;;;;;;17.23;11.57;;;-5.60;99.90;;;-141.84;72.26;18578.38;5047134;28;20697;-70
2022/12/14 07:34:13;;;;;;;16.07;11.40;;;-5.60;99.90;;;-141.84;72.43;18586.50;5052908;28;20607;-72
2022/12/14 07:36:43;;;;;;;16.50;11.43;;;-5.60;99.90;;;-141.84;72.20;18592.59;5052688;28;20235;-72
2022/12/14 07:39:14;;;;;;;17.00;11.70;;;-5.60;99.90;;;-141.84;72.38;18582.44;5052697;28;20205;-68
2022/12/14 07:41:43;;;;;;;16.40;11.60;;;-5.50;99.90;;;-141.84;72.91;18586.50;5053194;28;20213;-71
2022/12/14 07:44:11;;;;;;;16.50;11.20;;;-5.50;99.90;;;-141.84;72.67;18594.63;5052625;28;20278;-71
2022/12/14 07:46:40;;;;;;;17.17;10.93;;;-5.50;99.90;;;-141.84;71.58;18576.31;5052629;28;20227;-72
2022/12/14 07:49:10;;;;;;;17.13;11.57;;;-5.30;99.90;;;-141.84;71.02;18592.59;5052786;28;20237;-69
2022/12/14 07:51:43;;;;;;;16.63;11.47;;;-5.30;99.90;;;-141.84;71.06;18612.91;5052764;28;20606;-70
2022/12/14 07:54:12;;;;;;;17.63;11.47;;;-5.30;99.90;;;-141.84;70.76;18574.28;5052766;28;20540;-69
2022/12/14 07:56:43;;;;;;;17.57;11.17;;;-5.20;99.90;;;-141.84;70.83;18608.84;5053179;28;20277;-70
2022/12/14 07:59:15;;;;;;;15.90;11.03;;;-5.10;99.90;;;-141.84;70.71;18612.91;5052591;28;20284;-69
2022/12/14 08:01:44;;;;;;;16.83;11.53;;;-5.00;99.90;;;-141.84;70.14;18564.13;5052735;28;20225;-71
2022/12/14 08:04:15;;;;;;;16.50;11.43;;;-5.00;99.90;;;-141.84;69.30;18608.84;5052743;28;20635;-72
2022/12/14 08:06:46;;;;;;;15.33;11.07;;;-4.90;99.90;;;-141.84;69.49;18612.91;5052825;28;20589;-70
2022/12/14 08:09:15;;;;;;;17.13;10.97;;;-4.90;99.90;;;-141.84;69.19;18606.81;5052353;28;20837;-66
2022/12/14 08:11:44;;;;;;;17.33;11.43;;;-4.80;99.90;;;-141.84;69.19;18588.53;5052582;28;20206;-68
2022/12/14 08:14:16;;;;;;;17.77;11.73;;;-4.70;99.90;;;-141.84;69.44;18602.75;5052523;28;20227;-67
2022/12/14 08:16:45;;;;;;;17.13;11.53;;;-4.70;99.90;;;-141.84;69.38;18606.81;5053127;28;20233;-69
2022/12/14 08:19:14;;;;;;;18.23;11.80;;;-4.60;99.90;;;-141.84;69.31;18608.84;5053301;28;20240;-70
2022/12/14 08:21:45;;;;;;;19.23;13.17;;;-4.50;99.90;;;-141.84;68.87;18623.06;5053392;28;20226;-69
2022/12/14 08:24:15;;;;;;;17.37;11.93;;;-4.40;99.90;;;-141.84;68.49;18614.94;5053381;28;20200;-69
2022/12/14 08:26:43;;;;;;;17.60;11.90;;;-4.30;99.90;;;-141.84;67.66;18637.28;5046006;28;20218;-70
2022/12/14 08:29:17;;;;;;;18.53;12.43;;;-4.20;99.90;;;-141.84;66.88;18616.97;5034359;28;20319;-65
2022/12/14 08:31:46;;;;;;;15.97;10.87;;;-4.10;99.90;;;-141.84;66.85;18592.59;5032204;28;20218;-65
2022/12/14 08:34:19;;;;;;;19.93;12.17;;;-4.10;99.90;;;-141.84;66.51;18639.31;5048719;28;20230;-66
2022/12/14 08:36:49;;;;;;;16.97;11.53;;;-4.00;99.90;;;-141.84;66.18;18629.16;5051646;28;20291;-65
2022/12/14 08:39:17;;;;;;;16.03;11.23;;;-4.00;99.90;;;-141.84;66.19;18643.38;5051890;28;20702;-65
2022/12/14 08:41:45;;;;;;;18.27;12.57;;;-4.00;99.90;;;-141.84;66.14;18655.56;5051576;28;20206;-66
2022/12/14 08:44:15;;;;;;;18.13;12.43;;;-3.90;99.90;;;-141.84;66.08;18633.22;5052049;28;20286;-66
2022/12/14 08:46:43;;;;;;;16.90;12.03;;;-3.90;99.90;;;-141.84;65.97;18633.22;5052332;28;20227;-69
2022/12/14 08:49:12;;;;;;;18.80;12.20;;;-3.90;99.90;;;-141.84;66.00;18661.66;5052067;28;20230;-68
2022/12/14 08:51:40;;;;;;;17.20;11.87;;;-3.90;99.90;;;-141.84;65.36;18629.16;5052544;28;20227;-69
2022/12/14 08:54:10;;;;;;;16.37;11.50;;;-3.80;99.90;;;-141.84;66.10;18629.16;5052508;28;20297;-69
2022/12/14 08:56:39;;;;;;;15.57;11.93;;;-3.90;99.90;;;-141.84;66.56;18627.13;5052052;28;20232;-70
2022/12/14 08:59:07;;;;;;;17.83;12.30;;;-4.00;99.90;;;-141.84;67.00;18592.59;5051693;28;20239;-69
2022/12/14 09:01:35;;;;;;;16.23;11.17;;;-3.90;99.90;;;-141.84;65.97;18631.19;5052069;28;20231;-72
2022/12/14 09:04:07;;;;;;;18.73;11.97;;;-3.80;99.90;;;-141.84;65.99;18625.09;5052154;28;20695;-70
2022/12/14 09:06:39;;;;;;;18.37;11.43;;;-3.70;99.90;;;-141.84;66.48;18633.22;5052976;28;20330;-67
2022/12/14 09:09:09;;;;;;;18.47;12.77;;;-3.60;99.90;;;-141.84;65.91;18627.13;5052222;28;20194;-67
2022/12/14 09:11:44;;;;;;;18.77;12.27;;;-3.60;99.90;;;-141.84;65.37;18635.25;5052053;28;20595;-69
2022/12/14 09:14:12;;;;;;;18.03;12.57;;;-3.40;99.90;;;-141.84;65.98;18645.41;5051539;28;20248;-70
2022/12/14 09:16:41;;;;;;;17.07;11.67;;;-3.40;99.90;;;-141.84;66.35;18631.19;5051805;28;20231;-70
2022/12/14 09:19:09;;;;;;;17.37;12.37;;;-3.30;99.90;;;-141.84;65.49;18655.56;5051530;28;20233;-73
2022/12/14 09:21:38;;;;;;;18.57;12.57;;;-3.20;99.90;;;-141.84;64.92;18665.72;5052105;28;20240;-71
2022/12/14 09:24:07;;;;;;;17.57;12.17;;;-3.20;99.90;;;-141.84;65.12;18671.81;5052255;28;20565;-71
2022/12/14 09:26:36;;;;;;;16.90;12.23;;;-3.10;99.90;;;-141.84;64.76;18663.69;5047489;28;20734;-71
2022/12/14 09:29:04;;;;;;;16.43;11.87;;;-3.00;99.90;;;-141.84;64.38;18675.88;5042634;28;20763;-77
2022/12/14 09:31:32;;;;;;;18.73;12.77;;;-2.90;99.90;;;-141.84;64.83;18600.72;5039293;28;20247;-77
2022/12/14 09:34:01;;;;;;;19.27;12.53;;;-2.90;99.90;;;-141.84;64.83;18659.63;5054372;28;20255;-76
2022/12/14 09:36:29;;;;;;;18.63;12.10;;;-2.80;99.90;;;-141.84;65.09;18635.25;5058304;28;20657;-77
2022/12/14 09:38:58;;;;;;;18.17;12.43;;;-2.80;99.90;;;-141.84;64.76;18655.56;5056678;28;20308;-77
2022/12/14 09:41:50;;;;;;;16.87;12.00;;;-2.60;99.90;;;-141.84;64.40;18669.78;5056723;28;20244;-76
2022/12/14 09:44:47;;;;;;;17.07;12.63;;;-2.60;99.90;;;-141.84;62.68;18694.16;5053719;28;20336;-73
2022/12/14 09:47:20;;;;;;;18.53;12.83;;;-2.60;99.90;;;-141.84;63.31;18645.41;5052166;28;20239;-71
2022/12/14 09:49:54;;;;;;;16.50;12.07;;;-2.50;99.90;;;-141.84;63.08;18661.66;5051190;28;20240;-73
2022/12/14 09:52:34;;;;;;;18.50;12.57;;;-2.40;99.90;;;-141.84;63.28;18700.25;5051192;28;20229;-73
2022/12/14 09:55:15;;;;;;;17.73;12.40;;;-2.40;99.90;;;-141.84;63.51;18665.72;5054037;28;20232;-76
2022/12/14 09:57:48;;;;;;;19.73;13.80;;;-2.30;99.90;;;-141.84;63.45;18700.25;5052288;28;20244;-74
2022/12/14 10:00:19;;;;;;;16.67;12.27;;;-2.20;99.90;;;-141.84;63.57;18667.75;5052963;28;20192;-75
2022/12/14 10:03:28;;;;;;;17.97;12.90;;;-2.10;99.90;;;-141.84;62.93;18671.81;5054032;28;20189;-76
2022/12/14 10:06:32;;;;;;;18.03;12.77;;;-2.10;99.90;;;-141.84;62.72;18698.22;5031748;28;20321;-70
2022/12/14 10:09:16;;;;;;;21.17;13.17;;;-2.20;99.90;;;-141.84;62.47;18675.88;5031587;28;20198;-72
2022/12/14 10:11:56;;;;;;;20.00;12.67;;;-2.20;99.90;;;-141.84;62.41;18704.31;5011946;28;20847;-71
2022/12/14 10:14:49;;;;;;;18.50;12.90;;;-2.10;99.90;;;-141.84;62.33;18704.31;5030224;28;20744;-72
2022/12/14 10:17:31;;;;;;;17.73;12.17;;;-2.30;99.90;;;-141.84;62.79;18718.56;5014647;28;20241;-71
2022/12/14 10:20:13;;;;;;;18.93;12.60;;;-2.20;99.90;;;-141.84;62.73;18675.88;5011342;28;20231;-72
2022/12/14 10:22:48;;;;;;;18.93;12.60;;;-2.10;99.90;;;-141.84;62.04;18698.22;5023101;28;20225;-70
2022/12/14 10:25:23;;;;;;;16.17;11.97;;;-2.10;99.90;;;-141.84;62.07;18700.25;5026954;28;20238;-81
2022/12/14 10:27:58;;;;;;;18.87;12.87;;;-2.00;99.90;;;-141.84;61.87;18702.28;5033062;28;20244;-73
2022/12/14 10:30:42;;;;;;;19.03;12.97;;;-1.90;99.90;;;-141.84;61.85;18679.94;5030659;28;20233;-71